sensor_id;sensor_type;location;lat;lon;timestamp;pressure;altitude;pressure_sealevel;temperature
80422;BMP280;69763;50.182;9.144;2023-10-09T00:00:32;100619.69;;;10.16
80422;BMP280;69763;50.182;9.144;2023-10-09T00:02:57;100616.00;;;10.14
80422;BMP280;69763;50.182;9.144;2023-10-09T00:05:24;100615.25;;;10.13
80422;BMP280;69763;50.182;9.144;2023-10-09T00:07:50;100615.03;;;10.17
80422;BMP280;69763;50.182;9.144;2023-10-09T00:10:15;100614.00;;;10.20
80422;BMP280;69763;50.182;9.144;2023-10-09T00:12:41;100606.41;;;10.18
80422;BMP280;69763;50.182;9.144;2023-10-09T00:15:07;100600.47;;;10.14
80422;BMP280;69763;50.182;9.144;2023-10-09T00:17:34;100593.31;;;10.11
80422;BMP280;69763;50.182;9.144;2023-10-09T00:20:01;100593.09;;;10.09
80422;BMP280;69763;50.182;9.144;2023-10-09T00:22:28;100593.59;;;10.07
80422;BMP280;69763;50.182;9.144;2023-10-09T00:24:54;100589.66;;;10.08
80422;BMP280;69763;50.182;9.144;2023-10-09T00:27:19;100592.63;;;10.11
80422;BMP280;69763;50.182;9.144;2023-10-09T00:29:45;100580.78;;;10.08
80422;BMP280;69763;50.182;9.144;2023-10-09T00:32:10;100575.13;;;10.06
80422;BMP280;69763;50.182;9.144;2023-10-09T00:34:36;100568.00;;;10.03
80422;BMP280;69763;50.182;9.144;2023-10-09T00:37:01;100565.75;;;10.07
80422;BMP280;69763;50.182;9.144;2023-10-09T00:39:31;100561.09;;;10.07
80422;BMP280;69763;50.182;9.144;2023-10-09T00:41:56;100551.00;;;10.02
80422;BMP280;69763;50.182;9.144;2023-10-09T00:44:21;100563.31;;;9.98
80422;BMP280;69763;50.182;9.144;2023-10-09T00:46:47;100558.41;;;9.96
80422;BMP280;69763;50.182;9.144;2023-10-09T00:49:13;100554.00;;;9.93
80422;BMP280;69763;50.182;9.144;2023-10-09T00:51:44;100543.91;;;9.88
80422;BMP280;69763;50.182;9.144;2023-10-09T00:54:12;100545.38;;;9.84
80422;BMP280;69763;50.182;9.144;2023-10-09T00:56:40;100542.19;;;9.80
80422;BMP280;69763;50.182;9.144;2023-10-09T00:59:08;100538.97;;;9.76
80422;BMP280;69763;50.182;9.144;2023-10-09T01:01:34;100541.47;;;9.74
80422;BMP280;69763;50.182;9.144;2023-10-09T01:03:59;100527.66;;;9.72
80422;BMP280;69763;50.182;9.144;2023-10-09T01:06:24;100519.06;;;9.68
80422;BMP280;69763;50.182;9.144;2023-10-09T01:08:50;100525.19;;;9.62
80422;BMP280;69763;50.182;9.144;2023-10-09T01:11:16;100525.69;;;9.61
80422;BMP280;69763;50.182;9.144;2023-10-09T01:13:43;100526.69;;;9.63
80422;BMP280;69763;50.182;9.144;2023-10-09T01:16:09;100537.53;;;9.52
80422;BMP280;69763;50.182;9.144;2023-10-09T01:18:35;100538.22;;;9.47
80422;BMP280;69763;50.182;9.144;2023-10-09T01:21:00;100528.41;;;9.50
80422;BMP280;69763;50.182;9.144;2023-10-09T01:23:28;100526.91;;;9.60
80422;BMP280;69763;50.182;9.144;2023-10-09T01:25:53;100528.66;;;9.63
80422;BMP280;69763;50.182;9.144;2023-10-09T01:28:18;100527.91;;;9.62
80422;BMP280;69763;50.182;9.144;2023-10-09T01:30:44;100523.47;;;9.54
80422;BMP280;69763;50.182;9.144;2023-10-09T01:33:09;100517.34;;;9.42
80422;BMP280;69763;50.182;9.144;2023-10-09T01:35:35;100521.03;;;9.28
80422;BMP280;69763;50.182;9.144;2023-10-09T01:38:00;100522.00;;;9.14
80422;BMP280;69763;50.182;9.144;2023-10-09T01:40:30;100528.16;;;9.14
80422;BMP280;69763;50.182;9.144;2023-10-09T01:42:55;100524.44;;;9.12
80422;BMP280;69763;50.182;9.144;2023-10-09T01:45:22;100524.13;;;8.93
80422;BMP280;69763;50.182;9.144;2023-10-09T01:47:47;100526.38;;;8.83
80422;BMP280;69763;50.182;9.144;2023-10-09T01:50:12;100535.97;;;8.96
80422;BMP280;69763;50.182;9.144;2023-10-09T01:52:38;100527.84;;;9.01
80422;BMP280;69763;50.182;9.144;2023-10-09T01:55:06;100524.91;;;9.05
80422;BMP280;69763;50.182;9.144;2023-10-09T01:57:33;100527.59;;;8.99
80422;BMP280;69763;50.182;9.144;2023-10-09T01:59:59;100530.06;;;8.97
80422;BMP280;69763;50.182;9.144;2023-10-09T02:02:25;100534.00;;;9.02
80422;BMP280;69763;50.182;9.144;2023-10-09T02:04:51;100539.19;;;9.05
80422;BMP280;69763;50.182;9.144;2023-10-09T02:07:16;100520.22;;;9.00
80422;BMP280;69763;50.182;9.144;2023-10-09T02:09:41;100518.25;;;8.83
80422;BMP280;69763;50.182;9.144;2023-10-09T02:12:07;100528.34;;;8.83
80422;BMP280;69763;50.182;9.144;2023-10-09T02:14:34;100524.63;;;8.80
80422;BMP280;69763;50.182;9.144;2023-10-09T02:17:01;100528.28;;;8.72
80422;BMP280;69763;50.182;9.144;2023-10-09T02:19:26;100528.00;;;8.64
80422;BMP280;69763;50.182;9.144;2023-10-09T02:21:52;100527.25;;;8.58
80422;BMP280;69763;50.182;9.144;2023-10-09T02:24:18;100521.59;;;8.56
80422;BMP280;69763;50.182;9.144;2023-10-09T02:26:43;100525.25;;;8.53
80422;BMP280;69763;50.182;9.144;2023-10-09T02:29:09;100520.31;;;8.52
80422;BMP280;69763;50.182;9.144;2023-10-09T02:31:36;100513.69;;;8.47
80422;BMP280;69763;50.182;9.144;2023-10-09T02:34:02;100507.06;;;8.48
80422;BMP280;69763;50.182;9.144;2023-10-09T02:36:27;100497.44;;;8.41
80422;BMP280;69763;50.182;9.144;2023-10-09T02:38:53;100506.28;;;8.36
80422;BMP280;69763;50.182;9.144;2023-10-09T02:41:18;100500.38;;;8.38
80422;BMP280;69763;50.182;9.144;2023-10-09T02:43:44;100493.97;;;8.35
80422;BMP280;69763;50.182;9.144;2023-10-09T02:46:09;100504.28;;;8.31
80422;BMP280;69763;50.182;9.144;2023-10-09T02:48:36;100491.25;;;8.24
80422;BMP280;69763;50.182;9.144;2023-10-09T02:51:02;100488.50;;;8.19
80422;BMP280;69763;50.182;9.144;2023-10-09T02:53:27;100497.34;;;8.19
80422;BMP280;69763;50.182;9.144;2023-10-09T02:55:52;100497.13;;;8.28
80422;BMP280;69763;50.182;9.144;2023-10-09T02:58:18;100495.47;;;8.36
80422;BMP280;69763;50.182;9.144;2023-10-09T03:00:44;100493.00;;;8.33
80422;BMP280;69763;50.182;9.144;2023-10-09T03:03:09;100497.69;;;8.38
80422;BMP280;69763;50.182;9.144;2023-10-09T03:05:36;100484.91;;;8.33
80422;BMP280;69763;50.182;9.144;2023-10-09T03:08:02;100477.47;;;8.22
80422;BMP280;69763;50.182;9.144;2023-10-09T03:10:28;100469.56;;;8.13
80422;BMP280;69763;50.182;9.144;2023-10-09T03:12:54;100475.44;;;8.12
80422;BMP280;69763;50.182;9.144;2023-10-09T03:15:20;100476.00;;;8.27
80422;BMP280;69763;50.182;9.144;2023-10-09T03:17:45;100477.03;;;8.29
80422;BMP280;69763;50.182;9.144;2023-10-09T03:20:11;100469.84;;;8.21
80422;BMP280;69763;50.182;9.144;2023-10-09T03:22:38;100472.06;;;8.17
80422;BMP280;69763;50.182;9.144;2023-10-09T03:25:05;100465.47;;;8.23
80422;BMP280;69763;50.182;9.144;2023-10-09T03:27:30;100458.59;;;8.28
80422;BMP280;69763;50.182;9.144;2023-10-09T03:29:56;100461.56;;;8.30
80422;BMP280;69763;50.182;9.144;2023-10-09T03:32:21;100461.06;;;8.31
80422;BMP280;69763;50.182;9.144;2023-10-09T03:34:47;100454.19;;;8.36
80422;BMP280;69763;50.182;9.144;2023-10-09T03:37:12;100451.75;;;8.38
80422;BMP280;69763;50.182;9.144;2023-10-09T03:39:39;100455.22;;;8.38
80422;BMP280;69763;50.182;9.144;2023-10-09T03:42:04;100456.19;;;8.41
80422;BMP280;69763;50.182;9.144;2023-10-09T03:44:31;100459.63;;;8.41
80422;BMP280;69763;50.182;9.144;2023-10-09T03:46:56;100458.41;;;8.42
80422;BMP280;69763;50.182;9.144;2023-10-09T03:49:22;100454.22;;;8.41
80422;BMP280;69763;50.182;9.144;2023-10-09T03:51:47;100437.25;;;8.35
80422;BMP280;69763;50.182;9.144;2023-10-09T03:54:13;100447.09;;;8.33
80422;BMP280;69763;50.182;9.144;2023-10-09T03:56:41;100449.78;;;8.33
80422;BMP280;69763;50.182;9.144;2023-10-09T03:59:06;100454.44;;;8.32
80422;BMP280;69763;50.182;9.144;2023-10-09T04:01:32;100452.72;;;8.35
80422;BMP280;69763;50.182;9.144;2023-10-09T04:03:59;100450.75;;;8.35
80422;BMP280;69763;50.182;9.144;2023-10-09T04:06:25;100457.16;;;8.38
80422;BMP280;69763;50.182;9.144;2023-10-09T04:08:51;100456.94;;;8.47
80422;BMP280;69763;50.182;9.144;2023-10-09T04:11:16;100455.47;;;8.52
80422;BMP280;69763;50.182;9.144;2023-10-09T04:13:44;100459.97;;;8.66
80422;BMP280;69763;50.182;9.144;2023-10-09T04:16:09;100459.22;;;8.65
80422;BMP280;69763;50.182;9.144;2023-10-09T04:18:34;100464.16;;;8.72
80422;BMP280;69763;50.182;9.144;2023-10-09T04:21:00;100465.91;;;8.81
80422;BMP280;69763;50.182;9.144;2023-10-09T04:23:25;100463.94;;;8.87
80422;BMP280;69763;50.182;9.144;2023-10-09T04:25:50;100473.75;;;8.96
80422;BMP280;69763;50.182;9.144;2023-10-09T04:28:16;100467.63;;;9.01
80422;BMP280;69763;50.182;9.144;2023-10-09T04:30:43;100458.78;;;9.06
80422;BMP280;69763;50.182;9.144;2023-10-09T04:33:08;100458.06;;;9.11
80422;BMP280;69763;50.182;9.144;2023-10-09T04:35:34;100463.72;;;9.13
80422;BMP280;69763;50.182;9.144;2023-10-09T04:37:59;100453.38;;;9.06
80422;BMP280;69763;50.182;9.144;2023-10-09T04:40:24;100459.50;;;9.01
80422;BMP280;69763;50.182;9.144;2023-10-09T04:42:51;100459.03;;;8.97
80422;BMP280;69763;50.182;9.144;2023-10-09T04:45:16;100460.47;;;8.92
80422;BMP280;69763;50.182;9.144;2023-10-09T04:47:43;100456.31;;;8.85
80422;BMP280;69763;50.182;9.144;2023-10-09T04:50:09;100461.22;;;8.81
80422;BMP280;69763;50.182;9.144;2023-10-09T04:52:36;100457.31;;;8.82
80422;BMP280;69763;50.182;9.144;2023-10-09T04:55:01;100458.00;;;8.72
80422;BMP280;69763;50.182;9.144;2023-10-09T04:57:27;100463.16;;;8.75
80422;BMP280;69763;50.182;9.144;2023-10-09T04:59:52;100464.69;;;8.82
80422;BMP280;69763;50.182;9.144;2023-10-09T05:02:18;100462.94;;;8.84
80422;BMP280;69763;50.182;9.144;2023-10-09T05:04:45;100463.16;;;8.75
80422;BMP280;69763;50.182;9.144;2023-10-09T05:07:11;100461.19;;;8.65
80422;BMP280;69763;50.182;9.144;2023-10-09T05:09:36;100466.31;;;8.63
80422;BMP280;69763;50.182;9.144;2023-10-09T05:12:02;100459.69;;;8.58
80422;BMP280;69763;50.182;9.144;2023-10-09T05:14:27;100461.19;;;8.65
80422;BMP280;69763;50.182;9.144;2023-10-09T05:16:53;100455.03;;;8.64
80422;BMP280;69763;50.182;9.144;2023-10-09T05:19:19;100448.13;;;8.58
80422;BMP280;69763;50.182;9.144;2023-10-09T05:21:45;100445.66;;;8.54
80422;BMP280;69763;50.182;9.144;2023-10-09T05:24:11;100455.03;;;8.64
80422;BMP280;69763;50.182;9.144;2023-10-09T05:26:37;100458.22;;;8.68
80422;BMP280;69763;50.182;9.144;2023-10-09T05:29:03;100456.53;;;8.71
80422;BMP280;69763;50.182;9.144;2023-10-09T05:31:28;100460.94;;;8.68
80422;BMP280;69763;50.182;9.144;2023-10-09T05:33:53;100463.13;;;8.64
80422;BMP280;69763;50.182;9.144;2023-10-09T05:36:19;100456.75;;;8.62
80422;BMP280;69763;50.182;9.144;2023-10-09T05:38:46;100452.56;;;8.61
80422;BMP280;69763;50.182;9.144;2023-10-09T05:41:12;100461.41;;;8.61
80422;BMP280;69763;50.182;9.144;2023-10-09T05:43:37;100454.28;;;8.58
80422;BMP280;69763;50.182;9.144;2023-10-09T05:46:04;100454.28;;;8.58
80422;BMP280;69763;50.182;9.144;2023-10-09T05:48:29;100446.91;;;8.59
80422;BMP280;69763;50.182;9.144;2023-10-09T05:50:54;100445.94;;;8.62
80422;BMP280;69763;50.182;9.144;2023-10-09T05:53:20;100446.44;;;8.66
80422;BMP280;69763;50.182;9.144;2023-10-09T05:55:46;100460.94;;;8.68
80422;BMP280;69763;50.182;9.144;2023-10-09T05:58:12;100454.56;;;8.71
80422;BMP280;69763;50.182;9.144;2023-10-09T06:00:37;100456.78;;;8.73
80422;BMP280;69763;50.182;9.144;2023-10-09T06:03:03;100458.75;;;8.78
80422;BMP280;69763;50.182;9.144;2023-10-09T06:05:29;100465.66;;;8.84
80422;BMP280;69763;50.182;9.144;2023-10-09T06:07:54;100453.84;;;8.93
80422;BMP280;69763;50.182;9.144;2023-10-09T06:10:20;100450.66;;;9.00
80422;BMP280;69763;50.182;9.144;2023-10-09T06:12:46;100451.91;;;9.10
80422;BMP280;69763;50.182;9.144;2023-10-09T06:15:11;100466.19;;;9.22
80422;BMP280;69763;50.182;9.144;2023-10-09T06:17:37;100461.50;;;9.34
80422;BMP280;69763;50.182;9.144;2023-10-09T06:20:03;100478.22;;;9.43
80422;BMP280;69763;50.182;9.144;2023-10-09T06:22:28;100471.31;;;9.48
80422;BMP280;69763;50.182;9.144;2023-10-09T06:24:54;100469.59;;;9.56
80422;BMP280;69763;50.182;9.144;2023-10-09T06:27:20;100476.00;;;9.64
80422;BMP280;69763;50.182;9.144;2023-10-09T06:29:47;100472.53;;;9.75
80422;BMP280;69763;50.182;9.144;2023-10-09T06:32:12;100462.44;;;9.86
80422;BMP280;69763;50.182;9.144;2023-10-09T06:34:37;100468.06;;;9.94
80422;BMP280;69763;50.182;9.144;2023-10-09T06:37:03;100469.50;;;10.00
80422;BMP280;69763;50.182;9.144;2023-10-09T06:39:28;100466.25;;;10.13
80422;BMP280;69763;50.182;9.144;2023-10-09T06:41:54;100471.38;;;10.28
80422;BMP280;69763;50.182;9.144;2023-10-09T06:44:19;100463.94;;;10.39
80422;BMP280;69763;50.182;9.144;2023-10-09T06:46:46;100463.13;;;10.50
80422;BMP280;69763;50.182;9.144;2023-10-09T06:49:11;100465.59;;;10.48
80422;BMP280;69763;50.182;9.144;2023-10-09T06:51:37;100469.78;;;10.49
80422;BMP280;69763;50.182;9.144;2023-10-09T06:54:02;100466.59;;;10.51
80422;BMP280;69763;50.182;9.144;2023-10-09T06:56:29;100466.81;;;10.53
80422;BMP280;69763;50.182;9.144;2023-10-09T06:58:54;100478.88;;;10.57
80422;BMP280;69763;50.182;9.144;2023-10-09T07:01:20;100484.00;;;10.61
80422;BMP280;69763;50.182;9.144;2023-10-09T07:03:47;100473.16;;;10.66
80422;BMP280;69763;50.182;9.144;2023-10-09T07:06:12;100476.78;;;10.74
80422;BMP280;69763;50.182;9.144;2023-10-09T07:08:37;100495.28;;;10.76
80422;BMP280;69763;50.182;9.144;2023-10-09T07:11:03;100499.19;;;10.86
80422;BMP280;69763;50.182;9.144;2023-10-09T07:13:28;100497.63;;;10.96
80422;BMP280;69763;50.182;9.144;2023-10-09T07:15:54;100502.06;;;10.94
80422;BMP280;69763;50.182;9.144;2023-10-09T07:18:19;100506.78;;;10.93
80422;BMP280;69763;50.182;9.144;2023-10-09T07:20:46;100488.75;;;10.96
80422;BMP280;69763;50.182;9.144;2023-10-09T07:23:11;100501.50;;;11.01
80422;BMP280;69763;50.182;9.144;2023-10-09T07:25:37;100503.47;;;11.06
80422;BMP280;69763;50.182;9.144;2023-10-09T07:28:03;100497.31;;;11.05
80422;BMP280;69763;50.182;9.144;2023-10-09T07:30:28;100498.78;;;11.06
80422;BMP280;69763;50.182;9.144;2023-10-09T07:32:53;100492.72;;;11.24
80422;BMP280;69763;50.182;9.144;2023-10-09T07:35:19;100501.47;;;11.42
80422;BMP280;69763;50.182;9.144;2023-10-09T07:37:46;100505.31;;;11.52
80422;BMP280;69763;50.182;9.144;2023-10-09T07:40:11;100503.03;;;11.56
80422;BMP280;69763;50.182;9.144;2023-10-09T07:42:37;100508.19;;;11.59
80422;BMP280;69763;50.182;9.144;2023-10-09T07:45:03;100514.09;;;11.63
80422;BMP280;69763;50.182;9.144;2023-10-09T07:47:28;100503.97;;;11.64
80422;BMP280;69763;50.182;9.144;2023-10-09T07:49:53;100518.78;;;11.63
80422;BMP280;69763;50.182;9.144;2023-10-09T07:52:20;100526.72;;;11.55
80422;BMP280;69763;50.182;9.144;2023-10-09T07:54:48;100518.88;;;11.52
80422;BMP280;69763;50.182;9.144;2023-10-09T07:57:13;100511.56;;;11.65
80422;BMP280;69763;50.182;9.144;2023-10-09T07:59:38;100521.19;;;11.66
80422;BMP280;69763;50.182;9.144;2023-10-09T08:02:04;100524.22;;;11.63
80422;BMP280;69763;50.182;9.144;2023-10-09T08:04:30;100540.09;;;11.78
80422;BMP280;69763;50.182;9.144;2023-10-09T08:06:55;100540.16;;;11.96
80422;BMP280;69763;50.182;9.144;2023-10-09T08:09:21;100538.31;;;12.29
80422;BMP280;69763;50.182;9.144;2023-10-09T08:11:48;100528.53;;;12.76
80422;BMP280;69763;50.182;9.144;2023-10-09T08:14:14;100528.75;;;13.10
80422;BMP280;69763;50.182;9.144;2023-10-09T08:16:40;100531.75;;;13.38
80422;BMP280;69763;50.182;9.144;2023-10-09T08:19:05;100534.50;;;13.65
80422;BMP280;69763;50.182;9.144;2023-10-09T08:21:31;100542.38;;;13.95
80422;BMP280;69763;50.182;9.144;2023-10-09T08:23:56;100552.50;;;14.20
80422;BMP280;69763;50.182;9.144;2023-10-09T08:26:21;100557.97;;;14.34
80422;BMP280;69763;50.182;9.144;2023-10-09T08:28:48;100567.91;;;14.31
80422;BMP280;69763;50.182;9.144;2023-10-09T08:31:16;100564.03;;;14.13
80422;BMP280;69763;50.182;9.144;2023-10-09T08:33:41;100571.00;;;14.01
80422;BMP280;69763;50.182;9.144;2023-10-09T08:36:07;100559.56;;;14.03
80422;BMP280;69763;50.182;9.144;2023-10-09T08:38:33;100559.03;;;14.04
80422;BMP280;69763;50.182;9.144;2023-10-09T08:41:06;100567.22;;;14.04
80422;BMP280;69763;50.182;9.144;2023-10-09T08:43:33;100560.63;;;14.00
80422;BMP280;69763;50.182;9.144;2023-10-09T08:46:01;100551.81;;;13.94
80422;BMP280;69763;50.182;9.144;2023-10-09T08:48:27;100544.78;;;13.98
80422;BMP280;69763;50.182;9.144;2023-10-09T08:50:55;100547.50;;;14.11
80422;BMP280;69763;50.182;9.144;2023-10-09T08:53:21;100553.97;;;14.21
80422;BMP280;69763;50.182;9.144;2023-10-09T08:55:47;100557.50;;;14.43
80422;BMP280;69763;50.182;9.144;2023-10-09T08:58:14;100559.94;;;14.67
80422;BMP280;69763;50.182;9.144;2023-10-09T09:00:40;100556.47;;;15.00
80422;BMP280;69763;50.182;9.144;2023-10-09T09:03:07;100553.53;;;15.47
80422;BMP280;69763;50.182;9.144;2023-10-09T09:05:32;100543.13;;;15.74
80422;BMP280;69763;50.182;9.144;2023-10-09T09:07:57;100540.16;;;16.00
80422;BMP280;69763;50.182;9.144;2023-10-09T09:10:27;100547.72;;;16.30
80422;BMP280;69763;50.182;9.144;2023-10-09T09:12:54;100531.94;;;16.74
80422;BMP280;69763;50.182;9.144;2023-10-09T09:15:19;100521.47;;;17.26
80422;BMP280;69763;50.182;9.144;2023-10-09T09:17:45;100516.31;;;17.53
80422;BMP280;69763;50.182;9.144;2023-10-09T09:20:23;100521.28;;;17.86
80422;BMP280;69763;50.182;9.144;2023-10-09T09:22:52;100518.06;;;18.13
80422;BMP280;69763;50.182;9.144;2023-10-09T09:25:18;100529.59;;;18.11
80422;BMP280;69763;50.182;9.144;2023-10-09T09:27:44;100531.50;;;17.93
80422;BMP280;69763;50.182;9.144;2023-10-09T09:30:22;100516.91;;;17.83
80422;BMP280;69763;50.182;9.144;2023-10-09T09:32:47;100522.22;;;17.81
80422;BMP280;69763;50.182;9.144;2023-10-09T09:35:13;100536.44;;;17.95
80422;BMP280;69763;50.182;9.144;2023-10-09T09:37:39;100533.78;;;18.20
80422;BMP280;69763;50.182;9.144;2023-10-09T09:40:05;100540.16;;;18.47
80422;BMP280;69763;50.182;9.144;2023-10-09T09:42:31;100523.25;;;18.75
80422;BMP280;69763;50.182;9.144;2023-10-09T09:44:59;100535.91;;;18.96
80422;BMP280;69763;50.182;9.144;2023-10-09T09:47:26;100559.38;;;19.14
80422;BMP280;69763;50.182;9.144;2023-10-09T09:49:52;100547.72;;;19.40
80422;BMP280;69763;50.182;9.144;2023-10-09T09:52:17;100551.69;;;19.64
80422;BMP280;69763;50.182;9.144;2023-10-09T09:54:44;100552.75;;;19.68
80422;BMP280;69763;50.182;9.144;2023-10-09T09:57:13;100550.88;;;19.71
80422;BMP280;69763;50.182;9.144;2023-10-09T09:59:40;100554.06;;;19.50
80422;BMP280;69763;50.182;9.144;2023-10-09T10:02:07;100554.69;;;19.41
80422;BMP280;69763;50.182;9.144;2023-10-09T10:04:37;100552.53;;;19.22
80422;BMP280;69763;50.182;9.144;2023-10-09T10:07:04;100558.63;;;18.96
80422;BMP280;69763;50.182;9.144;2023-10-09T10:09:34;100556.69;;;18.64
80422;BMP280;69763;50.182;9.144;2023-10-09T10:12:02;100550.97;;;18.45
80422;BMP280;69763;50.182;9.144;2023-10-09T10:14:51;100545.34;;;18.35
80422;BMP280;69763;50.182;9.144;2023-10-09T10:17:16;100543.38;;;18.28
80422;BMP280;69763;50.182;9.144;2023-10-09T10:20:00;100553.28;;;18.24
80422;BMP280;69763;50.182;9.144;2023-10-09T10:22:26;100571.03;;;18.23
80422;BMP280;69763;50.182;9.144;2023-10-09T10:24:52;100590.13;;;18.13
80422;BMP280;69763;50.182;9.144;2023-10-09T10:27:20;100588.53;;;18.03
80422;BMP280;69763;50.182;9.144;2023-10-09T10:29:45;100555.78;;;18.05
80422;BMP280;69763;50.182;9.144;2023-10-09T10:32:11;100573.72;;;18.06
80422;BMP280;69763;50.182;9.144;2023-10-09T10:34:52;100538.53;;;18.12
80422;BMP280;69763;50.182;9.144;2023-10-09T10:37:18;100533.78;;;18.12
80422;BMP280;69763;50.182;9.144;2023-10-09T10:39:49;100530.19;;;18.02
80422;BMP280;69763;50.182;9.144;2023-10-09T10:42:15;100523.06;;;17.99
80422;BMP280;69763;50.182;9.144;2023-10-09T10:44:41;100580.09;;;18.08
80422;BMP280;69763;50.182;9.144;2023-10-09T10:47:09;100574.63;;;18.33
80422;BMP280;69763;50.182;9.144;2023-10-09T10:49:35;100547.22;;;18.82
80422;BMP280;69763;50.182;9.144;2023-10-09T10:52:00;100561.63;;;19.08
80422;BMP280;69763;50.182;9.144;2023-10-09T10:54:25;100541.03;;;19.16
80422;BMP280;69763;50.182;9.144;2023-10-09T10:56:51;100524.00;;;19.18
80422;BMP280;69763;50.182;9.144;2023-10-09T10:59:17;100495.75;;;19.34
80422;BMP280;69763;50.182;9.144;2023-10-09T11:01:43;100509.41;;;19.59
80422;BMP280;69763;50.182;9.144;2023-10-09T11:04:11;100499.28;;;19.88
80422;BMP280;69763;50.182;9.144;2023-10-09T11:06:36;100486.41;;;20.18
80422;BMP280;69763;50.182;9.144;2023-10-09T11:09:02;100483.53;;;20.25
80422;BMP280;69763;50.182;9.144;2023-10-09T11:11:28;100470.66;;;20.47
80422;BMP280;69763;50.182;9.144;2023-10-09T11:13:53;100469.84;;;20.73
80422;BMP280;69763;50.182;9.144;2023-10-09T11:16:19;100455.78;;;21.08
80422;BMP280;69763;50.182;9.144;2023-10-09T11:18:46;100458.69;;;21.19
80422;BMP280;69763;50.182;9.144;2023-10-09T11:21:13;100449.38;;;21.15
80422;BMP280;69763;50.182;9.144;2023-10-09T11:23:41;100435.47;;;21.13
80422;BMP280;69763;50.182;9.144;2023-10-09T11:26:07;100435.47;;;21.13
80422;BMP280;69763;50.182;9.144;2023-10-09T11:28:34;100440.09;;;21.10
80422;BMP280;69763;50.182;9.144;2023-10-09T11:31:06;100431.56;;;21.16
80422;BMP280;69763;50.182;9.144;2023-10-09T11:33:42;100416.88;;;21.23
80422;BMP280;69763;50.182;9.144;2023-10-09T11:36:09;100411.78;;;21.29
80422;BMP280;69763;50.182;9.144;2023-10-09T11:38:35;100408.31;;;21.28
80422;BMP280;69763;50.182;9.144;2023-10-09T11:41:11;100397.75;;;21.15
80422;BMP280;69763;50.182;9.144;2023-10-09T11:43:47;100398.91;;;21.03
80422;BMP280;69763;50.182;9.144;2023-10-09T11:46:13;100403.97;;;21.06
80422;BMP280;69763;50.182;9.144;2023-10-09T11:48:38;100399.50;;;21.11
80422;BMP280;69763;50.182;9.144;2023-10-09T11:51:03;100398.03;;;21.10
80422;BMP280;69763;50.182;9.144;2023-10-09T11:53:39;100399.50;;;21.11
80422;BMP280;69763;50.182;9.144;2023-10-09T11:56:05;100399.06;;;21.05
80422;BMP280;69763;50.182;9.144;2023-10-09T11:58:30;100403.44;;;20.98
80422;BMP280;69763;50.182;9.144;2023-10-09T12:00:57;100399.66;;;20.94
80422;BMP280;69763;50.182;9.144;2023-10-09T12:03:24;100402.97;;;20.92
80422;BMP280;69763;50.182;9.144;2023-10-09T12:05:49;100401.25;;;20.97
80422;BMP280;69763;50.182;9.144;2023-10-09T12:08:15;100396.88;;;21.03
80422;BMP280;69763;50.182;9.144;2023-10-09T12:10:42;100383.69;;;21.02
80422;BMP280;69763;50.182;9.144;2023-10-09T12:13:07;100394.41;;;21.07
80422;BMP280;69763;50.182;9.144;2023-10-09T12:15:33;100389.47;;;21.06
80422;BMP280;69763;50.182;9.144;2023-10-09T12:17:58;100392.81;;;21.04
80422;BMP280;69763;50.182;9.144;2023-10-09T12:20:24;100396.31;;;21.05
80422;BMP280;69763;50.182;9.144;2023-10-09T12:22:49;100397.03;;;21.05
80422;BMP280;69763;50.182;9.144;2023-10-09T12:25:15;100395.28;;;21.10
80422;BMP280;69763;50.182;9.144;2023-10-09T12:27:41;100400.06;;;21.19
80422;BMP280;69763;50.182;9.144;2023-10-09T12:30:08;100395.56;;;21.23
80422;BMP280;69763;50.182;9.144;2023-10-09T12:32:33;100403.50;;;21.29
80422;BMP280;69763;50.182;9.144;2023-10-09T12:34:59;100399.72;;;21.34
80422;BMP280;69763;50.182;9.144;2023-10-09T12:37:24;100403.06;;;21.32
80422;BMP280;69763;50.182;9.144;2023-10-09T12:39:49;100399.72;;;21.34
80422;BMP280;69763;50.182;9.144;2023-10-09T12:42:15;100414.78;;;21.43
80422;BMP280;69763;50.182;9.144;2023-10-09T12:44:41;100411.31;;;21.42
80422;BMP280;69763;50.182;9.144;2023-10-09T12:47:07;100413.19;;;21.39
80422;BMP280;69763;50.182;9.144;2023-10-09T12:49:33;100401.28;;;21.37
80422;BMP280;69763;50.182;9.144;2023-10-09T12:51:58;100402.16;;;21.39
80422;BMP280;69763;50.182;9.144;2023-10-09T12:54:24;100405.19;;;21.44
80422;BMP280;69763;50.182;9.144;2023-10-09T12:56:50;100400.56;;;21.46
80422;BMP280;69763;50.182;9.144;2023-10-09T12:59:15;100396.34;;;21.45
80422;BMP280;69763;50.182;9.144;2023-10-09T13:01:42;100400.13;;;21.50
80422;BMP280;69763;50.182;9.144;2023-10-09T13:04:07;100400.13;;;21.50
80422;BMP280;69763;50.182;9.144;2023-10-09T13:06:33;100407.06;;;21.51
80422;BMP280;69763;50.182;9.144;2023-10-09T13:08:58;100394.00;;;21.51
80422;BMP280;69763;50.182;9.144;2023-10-09T13:11:24;100389.34;;;21.54
80422;BMP280;69763;50.182;9.144;2023-10-09T13:13:49;100409.06;;;21.60
80422;BMP280;69763;50.182;9.144;2023-10-09T13:16:15;100398.78;;;21.60
80422;BMP280;69763;50.182;9.144;2023-10-09T13:18:42;100402.25;;;21.61
80422;BMP280;69763;50.182;9.144;2023-10-09T13:21:08;100395.13;;;21.58
80422;BMP280;69763;50.182;9.144;2023-10-09T13:23:33;100394.84;;;21.54
80422;BMP280;69763;50.182;9.144;2023-10-09T13:25:58;100389.09;;;21.50
80422;BMP280;69763;50.182;9.144;2023-10-09T13:28:24;100391.69;;;21.48
80422;BMP280;69763;50.182;9.144;2023-10-09T13:30:49;100398.25;;;21.43
80422;BMP280;69763;50.182;9.144;2023-10-09T13:33:15;100388.09;;;21.35
80422;BMP280;69763;50.182;9.144;2023-10-09T13:35:41;100396.53;;;21.28
80422;BMP280;69763;50.182;9.144;2023-10-09T13:38:07;100383.94;;;21.25
80422;BMP280;69763;50.182;9.144;2023-10-09T13:40:32;100396.41;;;21.26
80422;BMP280;69763;50.182;9.144;2023-10-09T13:42:57;100395.53;;;21.33
80422;BMP280;69763;50.182;9.144;2023-10-09T13:45:23;100391.13;;;21.39
80422;BMP280;69763;50.182;9.144;2023-10-09T13:47:48;100389.81;;;21.40
80422;BMP280;69763;50.182;9.144;2023-10-09T13:50:14;100389.69;;;21.38
80422;BMP280;69763;50.182;9.144;2023-10-09T13:52:41;100390.13;;;21.35
80422;BMP280;69763;50.182;9.144;2023-10-09T13:55:07;100387.25;;;21.33